»·PEaware :: DAL269 KDEN-KSLC

DAL269 :: KDEN-KSLC

FLIGHT INFORMATION

Flight Status: Arrived
Operator:
Delta Air Lines
More flights by this operator :: More flights under this callsign
Pilot: Anonymous 17514 (17514)
Aircraft: CANADAIR CL-600 CRJ-200
(CRJ2)
More flights by this aircraft type
Origin: KDEN Denver Intl
United States
Destination: KSLC Salt Lake City Intl
United States
More flights between these airports :: More routes between these airports
Route: +FOOOT3 RLG EKR LEEHY5
File this flight plan on PilotEdge
Remarks:
Altitude:
(Current/Filed)
36,000ft
Speed:
(Current/Filed)
0kts
Departed: 05-May-18 03:32 PM
Arrived: 05-May-18 04:36 PM
Distance/Time
Traveled:
339nm/1:04
Distance/Time
To Go:
Arrived

Flight Plot

Page will automatically refresh every two minutes.

Flight plan parsing failed; only flown route is shown


Map Options




Map Legend


Flown Route
Filed Route
Departure Airport
Arrival Airport
Navaid (VOR, NDB)
Fix

Horizontal Profiles

Position Reports

Time Latitude Longitude Heading Altitude Ground
Speed
05-May-18 15:00 39.859371 -104.666645 180 5439ft 0kts
05-May-18 15:01 39.859371 -104.666645 180 5439ft 0kts
05-May-18 15:02 39.859371 -104.666645 180 5439ft 0kts
05-May-18 15:03 39.859371 -104.666645 180 5439ft 0kts
05-May-18 15:04 39.859371 -104.666645 180 5439ft 0kts
05-May-18 15:05 39.859371 -104.666645 180 5439ft 0kts
05-May-18 15:06 39.859371 -104.666645 180 5439ft 0kts
05-May-18 15:07 39.859371 -104.666645 180 5439ft 0kts
05-May-18 15:08 39.859371 -104.666645 180 5439ft 0kts
05-May-18 15:08 39.859371 -104.666645 179 5439ft 0kts
05-May-18 15:09 39.859371 -104.666645 179 5439ft 0kts
05-May-18 15:11 39.859371 -104.666645 180 5439ft 0kts
05-May-18 15:12 39.859371 -104.666645 180 5439ft 0kts
05-May-18 15:13 39.859371 -104.666645 180 5439ft 0kts
05-May-18 15:14 39.859365 -104.666645 180 5439ft 0kts
05-May-18 15:15 39.859369 -104.666984 180 5439ft 0kts
05-May-18 15:17 39.859365 -104.666645 180 5439ft 0kts
05-May-18 15:18 39.859365 -104.666645 180 5439ft 0kts
05-May-18 15:19 39.859365 -104.666645 180 5439ft 0kts
05-May-18 15:20 39.859365 -104.666645 180 5439ft 0kts
05-May-18 15:21 39.859365 -104.666645 179 5439ft 0kts
05-May-18 15:22 39.859365 -104.666645 180 5439ft 0kts
05-May-18 15:23 39.859365 -104.666645 180 5439ft 0kts
05-May-18 15:24 39.859980 -104.666841 117 5439ft 3kts
05-May-18 15:25 39.860017 -104.667075 93 5439ft 0kts
05-May-18 15:26 39.860016 -104.667052 93 5439ft 0kts
05-May-18 15:27 39.860047 -104.665788 84 5439ft 10kts
05-May-18 15:28 39.860788 -104.662160 11 5439ft 4kts
05-May-18 15:29 39.861032 -104.661633 87 5439ft 0kts
05-May-18 15:30 39.860068 -104.660012 182 5439ft 25kts
05-May-18 15:31 39.827107 -104.660376 179 5728ft 182kts
05-May-18 15:32 39.810197 -104.702222 304 7524ft 177kts
05-May-18 15:33 39.836750 -104.756097 305 9243ft 182kts
05-May-18 15:34 39.861971 -104.806306 306 9446ft 174kts
05-May-18 15:35 39.890089 -104.862057 305 9937ft 194kts
05-May-18 15:36 39.925779 -104.939261 300 10267ft 275kts
05-May-18 15:37 39.950499 -105.028830 280 10691ft 296kts
05-May-18 15:38 39.963403 -105.136198 280 14751ft 309kts
05-May-18 15:39 39.976390 -105.248166 279 18360ft 327kts
05-May-18 15:40 39.983624 -105.367302 269 21692ft 345kts
05-May-18 15:41 39.980138 -105.493816 269 24539ft 368kts
05-May-18 15:42 39.976153 -105.627219 269 27378ft 383kts
05-May-18 15:43 39.972974 -105.763128 269 29949ft 397kts
05-May-18 15:44 39.974064 -105.908138 274 32370ft 411kts
05-May-18 15:45 39.981821 -106.050812 275 34477ft 425kts
05-May-18 15:46 39.990166 -106.205079 274 36002ft 455kts
05-May-18 15:47 39.999193 -106.376195 275 35999ft 485kts
05-May-18 15:48 40.007879 -106.548000 275 35999ft 485kts
05-May-18 15:49 40.016183 -106.719144 274 35999ft 485kts
05-May-18 15:50 40.024307 -106.892164 274 35998ft 485kts
05-May-18 15:51 40.032129 -107.064432 274 35999ft 485kts
05-May-18 15:52 40.039828 -107.238790 274 35998ft 485kts
05-May-18 15:53 40.047147 -107.411719 274 35999ft 485kts
05-May-18 15:54 40.054335 -107.586849 274 35998ft 485kts
05-May-18 15:55 40.061085 -107.757715 273 35999ft 485kts
05-May-18 15:56 40.067821 -107.931560 274 35998ft 485kts
05-May-18 15:58 40.075683 -108.105105 274 35998ft 485kts
05-May-18 15:59 40.083427 -108.279966 274 35998ft 486kts
05-May-18 16:00 40.090873 -108.453371 274 35999ft 486kts
05-May-18 16:01 40.098014 -108.627093 274 35633ft 478kts
05-May-18 16:02 40.104524 -108.790461 273 34581ft 476kts
05-May-18 16:03 40.111154 -108.963595 273 33284ft 486kts
05-May-18 16:04 40.117591 -109.138217 273 31916ft 491kts
05-May-18 16:05 40.123868 -109.315176 273 30540ft 494kts
05-May-18 16:06 40.129855 -109.492466 273 29677ft 491kts
05-May-18 16:07 40.135435 -109.664850 272 29131ft 488kts
05-May-18 16:08 40.140814 -109.839760 272 28808ft 484kts
05-May-18 16:09 40.145933 -110.014272 272 28163ft 481kts
05-May-18 16:10 40.148571 -110.187087 270 26859ft 484kts
05-May-18 16:11 40.147210 -110.362734 270 25401ft 489kts
05-May-18 16:12 40.145506 -110.537891 270 24396ft 484kts
05-May-18 16:13 40.143575 -110.708250 269 23723ft 478kts
05-May-18 16:14 40.141425 -110.878902 269 23102ft 474kts
05-May-18 16:15 40.139011 -111.048073 269 22525ft 471kts
05-May-18 16:16 40.136377 -111.216879 270 22032ft 468kts
05-May-18 16:17 40.133621 -111.377543 269 21230ft 463kts
05-May-18 16:18 40.130424 -111.541518 274 20328ft 455kts
05-May-18 16:19 40.180679 -111.683354 307 18945ft 444kts
05-May-18 16:20 40.281244 -111.734770 2 18822ft 392kts
05-May-18 16:21 40.372215 -111.778744 310 18162ft 377kts
05-May-18 16:22 40.438262 -111.881930 310 16807ft 381kts
05-May-18 16:23 40.525625 -111.959093 331 15238ft 418kts
05-May-18 16:24 40.623635 -112.032303 331 14325ft 394kts
05-May-18 16:25 40.705600 -112.092257 343 13985ft 306kts
05-May-18 16:26 40.786690 -112.110946 351 11901ft 298kts
05-May-18 16:27 40.866519 -112.128770 351 9896ft 290kts
05-May-18 16:28 40.944024 -112.146191 351 8032ft 284kts
05-May-18 16:29 41.018935 -112.163132 351 7828ft 274kts
05-May-18 16:30 41.078926 -112.123387 78 7833ft 281kts
05-May-18 16:31 41.046047 -112.036315 148 7822ft 275kts
05-May-18 16:32 40.980113 -112.003615 171 7823ft 244kts
05-May-18 16:33 40.914748 -111.989848 170 7058ft 241kts
05-May-18 16:34 40.853190 -111.982789 173 5392ft 199kts
05-May-18 16:35 40.808062 -111.976920 173 4248ft 148kts
05-May-18 16:36 40.792883 -111.975302 190 4221ft 0kts
05-May-18 16:37 40.791492 -111.976985 180 4220ft 10kts
05-May-18 16:38 40.789340 -111.979421 197 4221ft 10kts
05-May-18 16:39 40.788093 -111.979127 74 4221ft 0kts

Navigation Log

Ident Type
Flight plan parsing failed, navigation log unavailable